createdAt,value
2023-04-17T00:04:03.231Z,2.30
2023-04-17T00:14:08.150Z,2.30
2023-04-17T00:24:13.132Z,2.00
2023-04-17T00:34:17.867Z,1.90
2023-04-17T00:44:21.359Z,1.80
2023-04-17T00:54:26.637Z,1.70
2023-04-17T01:04:30.195Z,1.60
2023-04-17T01:14:35.066Z,1.60
2023-04-17T01:24:40.092Z,1.70
2023-04-17T01:44:49.345Z,2.00
2023-04-17T01:54:52.787Z,2.30
2023-04-17T02:04:57.472Z,2.10
2023-04-17T02:15:01.384Z,2.20
2023-04-17T02:25:07.038Z,2.10
2023-04-17T02:35:11.417Z,2.50
2023-04-17T02:45:16.474Z,3.10
2023-04-17T02:55:21.160Z,3.40
2023-04-17T03:05:30.350Z,3.70
2023-04-17T03:15:36.491Z,3.90
2023-04-17T03:25:42.780Z,4.20
2023-04-17T03:35:47.375Z,4.40
2023-04-17T03:45:53.717Z,4.70
2023-04-17T03:55:58.209Z,4.90
2023-04-17T04:06:09.273Z,5.10
2023-04-17T04:16:12.933Z,5.30
2023-04-17T04:26:21.737Z,5.50
2023-04-17T04:36:30.457Z,5.70
2023-04-17T04:46:55.589Z,5.90
2023-04-17T04:56:59.412Z,6.10
2023-04-17T05:07:05.171Z,6.30
2023-04-17T05:17:11.052Z,6.60
2023-04-17T05:27:16.966Z,6.80
2023-04-17T05:37:22.007Z,7.00
2023-04-17T05:47:26.923Z,7.30
2023-04-17T05:57:30.435Z,7.70
2023-04-17T06:07:38.387Z,8.00
2023-04-17T06:17:43.813Z,8.30
2023-04-17T06:27:48.721Z,8.60
2023-04-17T06:37:52.252Z,9.50
2023-04-17T06:47:57.284Z,9.80
2023-04-17T06:58:00.903Z,10.10
2023-04-17T07:08:06.359Z,10.00
2023-04-17T07:18:09.801Z,10.10
2023-04-17T07:28:14.691Z,10.60
2023-04-17T07:38:18.217Z,10.90
2023-04-17T07:48:24.154Z,11.10
2023-04-17T07:58:27.902Z,11.40
2023-04-17T08:08:32.664Z,12.10
2023-04-17T08:18:37.792Z,12.60
2023-04-17T08:28:42.629Z,12.30
2023-04-17T08:38:47.928Z,12.20
2023-04-17T08:48:52.962Z,11.60
2023-04-17T08:58:56.446Z,11.30
2023-04-17T09:09:04.152Z,11.10
2023-04-17T09:19:08.817Z,10.60
2023-04-17T09:29:14.799Z,10.60
2023-04-17T09:39:21.125Z,10.60
2023-04-17T09:49:34.987Z,10.60
2023-04-17T09:59:41.488Z,11.10
2023-04-17T10:09:47.004Z,11.50
2023-04-17T10:19:50.404Z,11.50
2023-04-17T10:29:57.479Z,11.80
2023-04-17T10:40:02.910Z,12.90
2023-04-17T10:50:10.632Z,13.60
2023-04-17T11:00:16.591Z,13.60
2023-04-17T11:10:22.892Z,13.20
2023-04-17T11:20:29.893Z,13.10
2023-04-17T11:30:36.519Z,13.30
2023-04-17T11:40:48.160Z,13.20
2023-04-17T11:50:57.620Z,12.90
2023-04-17T12:01:06.573Z,12.40
2023-04-17T12:11:20.331Z,12.40
2023-04-17T12:21:24.847Z,12.20
2023-04-17T12:31:29.744Z,12.30
2023-04-17T12:41:33.245Z,12.90
2023-04-17T12:51:38.203Z,12.20
2023-04-17T13:01:42.615Z,11.50
2023-04-17T13:11:47.421Z,11.70
2023-04-17T13:21:52.558Z,11.50
2023-04-17T13:31:57.378Z,11.30
2023-04-17T13:42:00.850Z,11.10
2023-04-17T13:52:06.724Z,11.10
2023-04-17T14:02:10.630Z,11.10
2023-04-17T14:12:19.865Z,11.10
2023-04-17T14:22:23.285Z,11.20
2023-04-17T14:32:28.152Z,11.10
2023-04-17T14:42:35.999Z,10.90
2023-04-17T14:52:52.280Z,10.50
2023-04-17T15:02:56.133Z,10.30
2023-04-17T15:13:01.276Z,10.30
2023-04-17T15:23:04.622Z,10.20
2023-04-17T15:33:10.354Z,10.00
2023-04-17T15:43:14.088Z,10.00
2023-04-17T15:53:18.860Z,9.90
2023-04-17T16:03:23.391Z,9.80
2023-04-17T16:13:29.197Z,9.70
2023-04-17T16:23:32.691Z,9.60
2023-04-17T16:33:37.745Z,9.50
2023-04-17T16:43:42.488Z,9.40
2023-04-17T16:53:47.343Z,9.30
2023-04-17T17:03:50.930Z,9.30
2023-04-17T17:13:56.473Z,9.20
2023-04-17T17:24:00.650Z,9.10
2023-04-17T17:34:22.630Z,9.00
2023-04-17T17:44:29.076Z,9.00
2023-04-17T17:54:37.621Z,8.90
2023-04-17T18:04:41.178Z,8.80
2023-04-17T18:14:46.295Z,8.70
2023-04-17T18:24:49.655Z,8.70
2023-04-17T18:34:54.527Z,8.60
2023-04-17T18:44:58.463Z,8.60
2023-04-17T18:55:04.166Z,8.50
2023-04-17T19:05:09.070Z,8.50
2023-04-17T19:15:14.082Z,8.50
2023-04-17T19:25:17.571Z,8.40
2023-04-17T19:35:22.662Z,8.30
2023-04-17T19:45:26.017Z,8.30
2023-04-17T19:55:31.246Z,8.30
2023-04-17T20:05:34.850Z,8.20
2023-04-17T20:15:40.303Z,8.20
2023-04-17T20:25:43.949Z,8.20
2023-04-17T20:35:48.878Z,8.10
2023-04-17T20:45:52.768Z,8.10
2023-04-17T20:55:58.021Z,8.10
2023-04-17T21:06:02.042Z,8.10
2023-04-17T21:16:11.350Z,8.10
2023-04-17T21:26:16.250Z,8.00
2023-04-17T21:36:22.494Z,8.00
2023-04-17T21:46:26.596Z,8.00
2023-04-17T21:56:33.571Z,8.00
2023-04-17T22:06:39.338Z,8.00
2023-04-17T22:16:44.521Z,8.00
2023-04-17T22:26:47.961Z,8.00
2023-04-17T22:36:52.768Z,8.00
2023-04-17T22:46:56.131Z,8.10
2023-04-17T22:57:02.366Z,8.10
2023-04-17T23:07:05.809Z,8.10
2023-04-17T23:17:10.654Z,8.10
2023-04-17T23:27:14.006Z,8.10
2023-04-17T23:37:18.752Z,8.10
2023-04-17T23:47:22.211Z,8.10
2023-04-17T23:57:26.961Z,8.10
